KGTR/GTR METAR and TAF weather

Enter ICAO airport designator
Station Type Date Time Source
KGTR METAR 2021/04/18 02:56 UTC NOAA

KGTR 180256Z AUTO 32003KT 10SM CLR 14/09 A2998 RMK AO2 SLP159 T01390089 53018


Station Type Date Time Source
KGTR Decoded METAR 2021/04/18 02:56 UTC NOAA

Columbus/West Point/Starkville, Golden Triangle Regional Airport, MS, United States (KGTR) 33-27N 088-35W
Apr 17, 2021 - 10:56 PM EDT / 2021.04.18 0256 UTC
Wind: from the NW (320 degrees) at 3 MPH (3 KT):0
Visibility: 10 mile(s):0
Sky conditions: clear
Temperature: 57.0 F (13.9 C)
Dew Point: 48.0 F (8.9 C)
Relative Humidity: 71%
Pressure (altimeter): 29.98 in. Hg (1015 hPa)
Pressure tendency: 0.05 inches (1.8 hPa) higher than three hours ago
ob: KGTR 180256Z AUTO 32003KT 10SM CLR 14/09 A2998 RMK AO2 SLP159 T01390089 53018
cycle: 3

Station Type Date Time Source
KGTR TAF 2021/04/17 18:22 UTC NOAA

TAF KGTR 171720Z 1718/1818 33007KT P6SM SCT045 BKN060

Example: see airport list